Terminal Aerodrome Forecast
Issued by NWS Charleston, SC

Home | Current Version | Previous Version | Text Only | Print | Product List | Glossary On
Versions: 1 2 3 4 5 6 7 8 9 10 11 12 13 14
000
FTUS42 KCHS 301700
TAFSAV
TAF
KSAV 301737Z 3018/3118 12010G15KT P6SM SCT050
     FM310100 VRB03KT P6SM FEW025
     FM310600 VRB02KT 6SM BR FEW002 SCT015
     FM311300 08005KT P6SM SCT035=

USA.gov is the U.S. government's official web portal to all federal, state and local government web resources and services.